Pagina principală
METAR-TAF:

METAR-TAF

Aeroporturi :

La Argelia

Loja, Ecuador

Latitudine: 03-59-45S, longitudine: 079-22-19W, elevație: 1236 m

Observații meteo curente

Raportul a fost făcut în urmă cu 26 de minute, la 17:00 UTC
Vânt 13 kt de la Nord-est
Temperatură 30°C
Umiditate 38%
Presiune 1018 hPa
Vizibilitate de 10 km sau mai mult
Nori puțini la o înălțime de 4000 picior

METAR: SECA 261700Z 05013KT 9999 FEW040 30/14 Q1018 RMK A3009

Ora: 12:26 (17:26 UTC)


TAF: lipsă

Observații și prognoze meteo pentru peste 4.000 de aeroporturi (rapoarte METAR și TAF).

Stațiile disponibile sunt reprezentate pe hartă prin puncte galbene și roșii.

Țineți indicatorul mouse-ului pe punctul dorit pentru a vedea denumirea stației.

Apoi, faceți clic pentru a vedea observațiile și prognozele meteorologice.

Pentru a schimba harta: Pentru mărire, faceți clic pe butoanele verzi cu cruce neagră; pentru micșorare, pe butonul verde cu o liniuță; pentru hărți învecinate, pe săgețile verzi.


METAR-TAF: